sensor_id;sensor_type;location;lat;lon;timestamp;temperature;humidity
18648;DHT22;9453;50.294;18.644;2022-07-15T04:01:52;14.10;99.90
18648;DHT22;9453;50.294;18.644;2022-07-15T04:04:19;14.10;99.90
18648;DHT22;9453;50.294;18.644;2022-07-15T04:06:48;14.20;99.90
18648;DHT22;9453;50.294;18.644;2022-07-15T04:09:15;14.30;99.90
18648;DHT22;9453;50.294;18.644;2022-07-15T04:11:41;14.30;99.90
18648;DHT22;9453;50.294;18.644;2022-07-15T04:14:10;14.40;99.90
18648;DHT22;9453;50.294;18.644;2022-07-15T04:16:37;14.50;99.90
18648;DHT22;9453;50.294;18.644;2022-07-15T04:19:05;14.50;99.90
18648;DHT22;9453;50.294;18.644;2022-07-15T04:21:32;14.30;99.90
18648;DHT22;9453;50.294;18.644;2022-07-15T04:24:05;14.40;99.90
18648;DHT22;9453;50.294;18.644;2022-07-15T04:26:32;14.50;99.90
18648;DHT22;9453;50.294;18.644;2022-07-15T04:28:59;14.50;99.90
18648;DHT22;9453;50.294;18.644;2022-07-15T04:31:26;14.50;99.90
18648;DHT22;9453;50.294;18.644;2022-07-15T04:33:53;14.60;99.90
18648;DHT22;9453;50.294;18.644;2022-07-15T04:36:21;14.30;99.90
18648;DHT22;9453;50.294;18.644;2022-07-15T04:38:48;14.10;99.90
18648;DHT22;9453;50.294;18.644;2022-07-15T04:41:15;14.00;99.90
18648;DHT22;9453;50.294;18.644;2022-07-15T04:43:42;13.90;99.90
18648;DHT22;9453;50.294;18.644;2022-07-15T04:46:09;13.80;99.90
18648;DHT22;9453;50.294;18.644;2022-07-15T04:48:37;13.80;99.90
18648;DHT22;9453;50.294;18.644;2022-07-15T04:51:22;13.90;99.90
18648;DHT22;9453;50.294;18.644;2022-07-15T04:53:50;13.90;99.90
18648;DHT22;9453;50.294;18.644;2022-07-15T04:56:17;13.90;99.90
18648;DHT22;9453;50.294;18.644;2022-07-15T04:58:46;14.00;99.90
18648;DHT22;9453;50.294;18.644;2022-07-15T05:01:13;13.90;99.90
18648;DHT22;9453;50.294;18.644;2022-07-15T05:03:40;14.00;99.90
18648;DHT22;9453;50.294;18.644;2022-07-15T05:06:08;13.90;99.90
18648;DHT22;9453;50.294;18.644;2022-07-15T05:08:36;13.90;99.90
18648;DHT22;9453;50.294;18.644;2022-07-15T05:11:03;13.80;99.90
18648;DHT22;9453;50.294;18.644;2022-07-15T05:13:30;13.80;99.90
18648;DHT22;9453;50.294;18.644;2022-07-15T05:15:57;13.80;99.90
18648;DHT22;9453;50.294;18.644;2022-07-15T05:18:24;13.90;99.90
18648;DHT22;9453;50.294;18.644;2022-07-15T05:20:52;13.90;99.90
18648;DHT22;9453;50.294;18.644;2022-07-15T05:23:19;13.80;99.90
18648;DHT22;9453;50.294;18.644;2022-07-15T05:25:47;13.70;99.90
18648;DHT22;9453;50.294;18.644;2022-07-15T05:28:14;13.60;99.90
18648;DHT22;9453;50.294;18.644;2022-07-15T05:30:41;14.00;99.90
18648;DHT22;9453;50.294;18.644;2022-07-15T05:33:08;14.00;99.90
18648;DHT22;9453;50.294;18.644;2022-07-15T05:35:35;14.00;99.90
18648;DHT22;9453;50.294;18.644;2022-07-15T05:38:02;14.00;99.90
18648;DHT22;9453;50.294;18.644;2022-07-15T05:40:29;14.00;99.90
18648;DHT22;9453;50.294;18.644;2022-07-15T05:42:58;14.20;99.90
18648;DHT22;9453;50.294;18.644;2022-07-15T05:45:25;14.00;99.90
18648;DHT22;9453;50.294;18.644;2022-07-15T05:47:52;13.80;99.90
18648;DHT22;9453;50.294;18.644;2022-07-15T05:50:19;13.90;99.90
18648;DHT22;9453;50.294;18.644;2022-07-15T05:52:46;13.90;99.90
18648;DHT22;9453;50.294;18.644;2022-07-15T05:55:13;13.80;99.90
18648;DHT22;9453;50.294;18.644;2022-07-15T05:57:40;13.70;99.90
18648;DHT22;9453;50.294;18.644;2022-07-15T06:00:10;13.70;99.90
18648;DHT22;9453;50.294;18.644;2022-07-15T06:02:37;13.70;99.90
18648;DHT22;9453;50.294;18.644;2022-07-15T06:05:05;13.60;99.90
18648;DHT22;9453;50.294;18.644;2022-07-15T06:07:32;13.60;99.90
18648;DHT22;9453;50.294;18.644;2022-07-15T06:09:59;13.70;99.90
18648;DHT22;9453;50.294;18.644;2022-07-15T06:12:26;13.70;99.90
18648;DHT22;9453;50.294;18.644;2022-07-15T06:14:53;13.80;99.90
18648;DHT22;9453;50.294;18.644;2022-07-15T06:17:22;14.00;99.90
18648;DHT22;9453;50.294;18.644;2022-07-15T06:19:49;14.30;99.90
18648;DHT22;9453;50.294;18.644;2022-07-15T06:22:15;14.50;99.90
18648;DHT22;9453;50.294;18.644;2022-07-15T06:24:42;14.90;99.90
18648;DHT22;9453;50.294;18.644;2022-07-15T06:27:10;15.20;99.90
18648;DHT22;9453;50.294;18.644;2022-07-15T06:29:37;15.40;99.90
18648;DHT22;9453;50.294;18.644;2022-07-15T06:32:04;15.50;99.90
18648;DHT22;9453;50.294;18.644;2022-07-15T06:34:34;15.60;99.90
18648;DHT22;9453;50.294;18.644;2022-07-15T06:37:01;15.70;99.90
18648;DHT22;9453;50.294;18.644;2022-07-15T06:39:28;15.80;99.90
18648;DHT22;9453;50.294;18.644;2022-07-15T06:41:55;16.00;99.90
18648;DHT22;9453;50.294;18.644;2022-07-15T06:44:22;16.00;99.90
18648;DHT22;9453;50.294;18.644;2022-07-15T06:46:49;16.20;99.90
18648;DHT22;9453;50.294;18.644;2022-07-15T06:49:15;16.30;99.90
18648;DHT22;9453;50.294;18.644;2022-07-15T06:51:44;16.50;99.90
18648;DHT22;9453;50.294;18.644;2022-07-15T06:54:11;16.60;97.10
18648;DHT22;9453;50.294;18.644;2022-07-15T06:56:38;16.60;95.60
18648;DHT22;9453;50.294;18.644;2022-07-15T06:59:05;16.70;94.20
18648;DHT22;9453;50.294;18.644;2022-07-15T07:01:32;16.70;93.80
18648;DHT22;9453;50.294;18.644;2022-07-15T07:03:58;16.80;93.20
18648;DHT22;9453;50.294;18.644;2022-07-15T07:06:26;16.80;91.80
18648;DHT22;9453;50.294;18.644;2022-07-15T07:08:54;16.80;91.80
18648;DHT22;9453;50.294;18.644;2022-07-15T07:11:21;16.80;91.20
18648;DHT22;9453;50.294;18.644;2022-07-15T07:13:48;16.80;90.70
18648;DHT22;9453;50.294;18.644;2022-07-15T07:16:15;16.80;89.10
18648;DHT22;9453;50.294;18.644;2022-07-15T07:18:42;16.80;90.00
18648;DHT22;9453;50.294;18.644;2022-07-15T07:21:11;16.90;90.40
18648;DHT22;9453;50.294;18.644;2022-07-15T07:23:38;17.00;90.50
18648;DHT22;9453;50.294;18.644;2022-07-15T07:26:07;17.10;91.10
18648;DHT22;9453;50.294;18.644;2022-07-15T07:28:35;17.10;90.60
18648;DHT22;9453;50.294;18.644;2022-07-15T07:31:02;17.20;90.80
18648;DHT22;9453;50.294;18.644;2022-07-15T07:33:29;17.20;90.70
18648;DHT22;9453;50.294;18.644;2022-07-15T07:35:55;17.40;91.00
18648;DHT22;9453;50.294;18.644;2022-07-15T07:38:22;17.60;90.70
18648;DHT22;9453;50.294;18.644;2022-07-15T07:40:49;17.70;91.10
18648;DHT22;9453;50.294;18.644;2022-07-15T07:43:18;17.90;91.20
18648;DHT22;9453;50.294;18.644;2022-07-15T07:45:46;18.00;91.30
18648;DHT22;9453;50.294;18.644;2022-07-15T07:48:13;18.00;90.70
18648;DHT22;9453;50.294;18.644;2022-07-15T07:50:42;17.90;86.80
18648;DHT22;9453;50.294;18.644;2022-07-15T07:53:09;17.90;87.70
18648;DHT22;9453;50.294;18.644;2022-07-15T07:55:36;17.80;85.40
18648;DHT22;9453;50.294;18.644;2022-07-15T07:58:04;17.80;85.40
18648;DHT22;9453;50.294;18.644;2022-07-15T08:00:34;17.80;83.10
18648;DHT22;9453;50.294;18.644;2022-07-15T08:03:02;17.90;85.00
18648;DHT22;9453;50.294;18.644;2022-07-15T08:05:29;18.00;84.90
18648;DHT22;9453;50.294;18.644;2022-07-15T08:08:10;18.00;85.20
18648;DHT22;9453;50.294;18.644;2022-07-15T08:10:37;18.10;85.20
18648;DHT22;9453;50.294;18.644;2022-07-15T08:13:04;18.20;85.70
18648;DHT22;9453;50.294;18.644;2022-07-15T08:15:33;18.10;83.90
18648;DHT22;9453;50.294;18.644;2022-07-15T08:18:00;18.20;83.20
18648;DHT22;9453;50.294;18.644;2022-07-15T08:20:28;18.30;82.00
18648;DHT22;9453;50.294;18.644;2022-07-15T08:22:55;18.30;82.20
18648;DHT22;9453;50.294;18.644;2022-07-15T08:25:25;18.50;83.00
18648;DHT22;9453;50.294;18.644;2022-07-15T08:27:52;18.60;80.80
18648;DHT22;9453;50.294;18.644;2022-07-15T08:30:20;18.50;79.10
18648;DHT22;9453;50.294;18.644;2022-07-15T08:32:48;18.40;79.80
18648;DHT22;9453;50.294;18.644;2022-07-15T08:35:15;18.50;77.30
18648;DHT22;9453;50.294;18.644;2022-07-15T08:37:42;18.50;76.40
18648;DHT22;9453;50.294;18.644;2022-07-15T08:40:11;18.50;75.40
18648;DHT22;9453;50.294;18.644;2022-07-15T08:42:39;18.60;75.30
18648;DHT22;9453;50.294;18.644;2022-07-15T08:45:11;18.70;75.40
18648;DHT22;9453;50.294;18.644;2022-07-15T08:47:42;18.70;73.00
18648;DHT22;9453;50.294;18.644;2022-07-15T08:53:23;18.70;72.90
18648;DHT22;9453;50.294;18.644;2022-07-15T08:55:50;18.60;71.50
18648;DHT22;9453;50.294;18.644;2022-07-15T08:58:17;18.70;73.60
18648;DHT22;9453;50.294;18.644;2022-07-15T09:00:44;18.80;73.50
18648;DHT22;9453;50.294;18.644;2022-07-15T09:03:11;19.00;72.40
18648;DHT22;9453;50.294;18.644;2022-07-15T09:05:40;19.00;72.00
18648;DHT22;9453;50.294;18.644;2022-07-15T09:08:11;19.00;69.90
18648;DHT22;9453;50.294;18.644;2022-07-15T09:13:09;19.10;68.90
18648;DHT22;9453;50.294;18.644;2022-07-15T09:15:38;19.30;70.90
18648;DHT22;9453;50.294;18.644;2022-07-15T09:18:11;19.30;69.80
18648;DHT22;9453;50.294;18.644;2022-07-15T09:20:41;19.00;69.40
18648;DHT22;9453;50.294;18.644;2022-07-15T09:23:10;18.90;69.60
18648;DHT22;9453;50.294;18.644;2022-07-15T09:25:39;19.10;70.30
18648;DHT22;9453;50.294;18.644;2022-07-15T09:28:07;19.40;70.40
18648;DHT22;9453;50.294;18.644;2022-07-15T09:30:36;19.70;71.50
18648;DHT22;9453;50.294;18.644;2022-07-15T09:33:23;19.60;68.90
18648;DHT22;9453;50.294;18.644;2022-07-15T09:36:11;19.60;69.70
18648;DHT22;9453;50.294;18.644;2022-07-15T09:38:41;19.80;67.70
18648;DHT22;9453;50.294;18.644;2022-07-15T09:41:13;19.60;67.50
18648;DHT22;9453;50.294;18.644;2022-07-15T09:43:48;19.70;67.80
18648;DHT22;9453;50.294;18.644;2022-07-15T09:46:17;19.60;69.60
18648;DHT22;9453;50.294;18.644;2022-07-15T09:48:45;19.80;68.80
18648;DHT22;9453;50.294;18.644;2022-07-15T09:51:15;19.90;67.90
18648;DHT22;9453;50.294;18.644;2022-07-15T09:53:43;19.90;69.10
18648;DHT22;9453;50.294;18.644;2022-07-15T09:56:12;20.00;68.50
18648;DHT22;9453;50.294;18.644;2022-07-15T09:59:05;20.30;67.20
18648;DHT22;9453;50.294;18.644;2022-07-15T10:01:47;20.30;67.10
18648;DHT22;9453;50.294;18.644;2022-07-15T10:04:15;20.00;66.60
18648;DHT22;9453;50.294;18.644;2022-07-15T10:06:44;19.70;65.50
18648;DHT22;9453;50.294;18.644;2022-07-15T10:09:13;19.70;67.00
18648;DHT22;9453;50.294;18.644;2022-07-15T10:11:42;19.90;70.50
18648;DHT22;9453;50.294;18.644;2022-07-15T10:14:35;20.20;69.00
18648;DHT22;9453;50.294;18.644;2022-07-15T10:17:36;20.50;64.70
18648;DHT22;9453;50.294;18.644;2022-07-15T10:20:22;20.60;63.30
18648;DHT22;9453;50.294;18.644;2022-07-15T10:22:59;20.20;63.80
18648;DHT22;9453;50.294;18.644;2022-07-15T10:25:53;19.80;63.20
18648;DHT22;9453;50.294;18.644;2022-07-15T10:28:31;19.70;64.40
18648;DHT22;9453;50.294;18.644;2022-07-15T10:31:13;19.50;65.10
18648;DHT22;9453;50.294;18.644;2022-07-15T10:33:41;19.70;64.30
18648;DHT22;9453;50.294;18.644;2022-07-15T10:36:08;19.70;66.20
18648;DHT22;9453;50.294;18.644;2022-07-15T10:38:38;19.50;66.20
18648;DHT22;9453;50.294;18.644;2022-07-15T10:41:10;19.50;66.10
18648;DHT22;9453;50.294;18.644;2022-07-15T10:43:40;19.80;65.00
18648;DHT22;9453;50.294;18.644;2022-07-15T10:46:21;19.70;65.90
18648;DHT22;9453;50.294;18.644;2022-07-15T10:48:50;19.70;66.60
18648;DHT22;9453;50.294;18.644;2022-07-15T10:51:43;19.70;64.70
18648;DHT22;9453;50.294;18.644;2022-07-15T10:54:39;19.90;61.20
18648;DHT22;9453;50.294;18.644;2022-07-15T10:57:08;20.30;61.70
18648;DHT22;9453;50.294;18.644;2022-07-15T10:59:37;20.60;63.30
18648;DHT22;9453;50.294;18.644;2022-07-15T11:02:14;20.80;61.70
18648;DHT22;9453;50.294;18.644;2022-07-15T11:04:43;20.80;59.50
18648;DHT22;9453;50.294;18.644;2022-07-15T11:07:30;20.70;59.80
18648;DHT22;9453;50.294;18.644;2022-07-15T11:10:20;20.80;62.00
18648;DHT22;9453;50.294;18.644;2022-07-15T11:13:05;20.50;61.70
18648;DHT22;9453;50.294;18.644;2022-07-15T11:15:33;20.40;61.40
18648;DHT22;9453;50.294;18.644;2022-07-15T11:18:01;20.40;62.50
18648;DHT22;9453;50.294;18.644;2022-07-15T11:20:31;20.50;61.70
18648;DHT22;9453;50.294;18.644;2022-07-15T11:22:59;20.40;61.90
18648;DHT22;9453;50.294;18.644;2022-07-15T11:25:31;20.50;61.80
18648;DHT22;9453;50.294;18.644;2022-07-15T11:28:04;20.50;61.60
18648;DHT22;9453;50.294;18.644;2022-07-15T11:30:34;20.80;60.30
18648;DHT22;9453;50.294;18.644;2022-07-15T11:33:03;20.90;60.70
18648;DHT22;9453;50.294;18.644;2022-07-15T11:35:31;21.10;60.30
18648;DHT22;9453;50.294;18.644;2022-07-15T11:38:08;21.20;58.70
18648;DHT22;9453;50.294;18.644;2022-07-15T11:40:42;21.00;59.30
18648;DHT22;9453;50.294;18.644;2022-07-15T11:43:27;20.90;60.00
18648;DHT22;9453;50.294;18.644;2022-07-15T11:46:08;20.80;61.30
18648;DHT22;9453;50.294;18.644;2022-07-15T11:48:36;20.60;59.50
18648;DHT22;9453;50.294;18.644;2022-07-15T11:51:05;20.60;60.40
18648;DHT22;9453;50.294;18.644;2022-07-15T11:53:37;20.50;59.60
18648;DHT22;9453;50.294;18.644;2022-07-15T11:56:08;20.40;61.20
18648;DHT22;9453;50.294;18.644;2022-07-15T11:58:37;20.50;60.40
18648;DHT22;9453;50.294;18.644;2022-07-15T12:01:06;20.50;59.90
18648;DHT22;9453;50.294;18.644;2022-07-15T12:03:38;20.50;59.20
18648;DHT22;9453;50.294;18.644;2022-07-15T12:06:11;20.40;59.50
18648;DHT22;9453;50.294;18.644;2022-07-15T12:08:42;20.50;58.10
18648;DHT22;9453;50.294;18.644;2022-07-15T12:11:17;20.60;58.90
18648;DHT22;9453;50.294;18.644;2022-07-15T12:13:50;20.70;58.30
18648;DHT22;9453;50.294;18.644;2022-07-15T12:16:26;20.70;58.40
18648;DHT22;9453;50.294;18.644;2022-07-15T12:18:56;20.70;56.50
18648;DHT22;9453;50.294;18.644;2022-07-15T12:21:23;21.00;57.00
18648;DHT22;9453;50.294;18.644;2022-07-15T12:24:05;21.00;54.90
18648;DHT22;9453;50.294;18.644;2022-07-15T12:26:36;21.10;55.60
18648;DHT22;9453;50.294;18.644;2022-07-15T12:29:06;21.00;56.90
18648;DHT22;9453;50.294;18.644;2022-07-15T12:31:36;21.00;57.00
18648;DHT22;9453;50.294;18.644;2022-07-15T12:34:03;21.10;56.80
18648;DHT22;9453;50.294;18.644;2022-07-15T12:36:33;21.10;57.00
18648;DHT22;9453;50.294;18.644;2022-07-15T12:39:06;20.90;57.20
18648;DHT22;9453;50.294;18.644;2022-07-15T12:41:36;20.90;57.70
18648;DHT22;9453;50.294;18.644;2022-07-15T12:44:05;21.10;57.30
18648;DHT22;9453;50.294;18.644;2022-07-15T12:47:05;21.30;55.20
18648;DHT22;9453;50.294;18.644;2022-07-15T12:49:49;21.60;55.90
18648;DHT22;9453;50.294;18.644;2022-07-15T12:52:24;21.80;53.00
18648;DHT22;9453;50.294;18.644;2022-07-15T12:54:53;22.00;52.20
18648;DHT22;9453;50.294;18.644;2022-07-15T12:57:33;21.90;52.30
18648;DHT22;9453;50.294;18.644;2022-07-15T13:00:04;21.90;50.90
18648;DHT22;9453;50.294;18.644;2022-07-15T13:02:32;21.80;51.70
18648;DHT22;9453;50.294;18.644;2022-07-15T13:04:59;22.00;53.70
18648;DHT22;9453;50.294;18.644;2022-07-15T13:07:26;22.20;52.70
18648;DHT22;9453;50.294;18.644;2022-07-15T13:09:53;22.30;54.00
18648;DHT22;9453;50.294;18.644;2022-07-15T13:12:20;22.50;53.00
18648;DHT22;9453;50.294;18.644;2022-07-15T13:14:48;22.30;50.60
18648;DHT22;9453;50.294;18.644;2022-07-15T13:17:15;22.30;51.90
18648;DHT22;9453;50.294;18.644;2022-07-15T13:19:42;22.30;52.00
18648;DHT22;9453;50.294;18.644;2022-07-15T13:22:09;22.60;53.00
18648;DHT22;9453;50.294;18.644;2022-07-15T13:24:36;22.80;51.80
18648;DHT22;9453;50.294;18.644;2022-07-15T13:27:03;22.90;51.20
18648;DHT22;9453;50.294;18.644;2022-07-15T13:29:30;23.10;50.80
18648;DHT22;9453;50.294;18.644;2022-07-15T13:31:58;23.00;50.90
18648;DHT22;9453;50.294;18.644;2022-07-15T13:34:25;23.10;50.60
18648;DHT22;9453;50.294;18.644;2022-07-15T13:36:52;23.00;50.10
18648;DHT22;9453;50.294;18.644;2022-07-15T13:39:19;23.20;49.50
18648;DHT22;9453;50.294;18.644;2022-07-15T13:41:46;23.20;49.60
18648;DHT22;9453;50.294;18.644;2022-07-15T13:44:14;23.00;49.40
18648;DHT22;9453;50.294;18.644;2022-07-15T13:46:40;23.00;50.00
18648;DHT22;9453;50.294;18.644;2022-07-15T13:49:09;23.30;50.40
18648;DHT22;9453;50.294;18.644;2022-07-15T13:51:36;23.30;50.50
18648;DHT22;9453;50.294;18.644;2022-07-15T13:54:07;23.40;48.80
18648;DHT22;9453;50.294;18.644;2022-07-15T13:56:35;23.30;49.60
18648;DHT22;9453;50.294;18.644;2022-07-15T13:59:03;23.20;48.80
18648;DHT22;9453;50.294;18.644;2022-07-15T14:01:30;23.10;48.40
18648;DHT22;9453;50.294;18.644;2022-07-15T14:03:58;23.20;50.90
18648;DHT22;9453;50.294;18.644;2022-07-15T14:06:27;23.60;50.10
18648;DHT22;9453;50.294;18.644;2022-07-15T14:08:54;23.70;48.50
18648;DHT22;9453;50.294;18.644;2022-07-15T14:11:21;23.50;48.70
18648;DHT22;9453;50.294;18.644;2022-07-15T14:13:49;23.60;49.10
18648;DHT22;9453;50.294;18.644;2022-07-15T14:16:15;23.70;49.30
18648;DHT22;9453;50.294;18.644;2022-07-15T14:18:43;23.80;48.30
18648;DHT22;9453;50.294;18.644;2022-07-15T14:21:12;24.00;48.30
18648;DHT22;9453;50.294;18.644;2022-07-15T14:23:40;23.80;47.40
18648;DHT22;9453;50.294;18.644;2022-07-15T14:26:08;24.00;47.20
18648;DHT22;9453;50.294;18.644;2022-07-15T14:28:34;24.00;48.20
18648;DHT22;9453;50.294;18.644;2022-07-15T14:31:13;24.10;48.20
18648;DHT22;9453;50.294;18.644;2022-07-15T14:33:42;24.20;47.30
18648;DHT22;9453;50.294;18.644;2022-07-15T14:36:10;24.30;46.60
18648;DHT22;9453;50.294;18.644;2022-07-15T14:38:39;24.30;47.00
18648;DHT22;9453;50.294;18.644;2022-07-15T14:41:07;24.40;47.30
18648;DHT22;9453;50.294;18.644;2022-07-15T14:43:34;24.00;46.50
18648;DHT22;9453;50.294;18.644;2022-07-15T14:46:01;24.20;47.90
18648;DHT22;9453;50.294;18.644;2022-07-15T14:48:28;24.20;47.00
18648;DHT22;9453;50.294;18.644;2022-07-15T14:50:55;24.30;46.60
18648;DHT22;9453;50.294;18.644;2022-07-15T14:53:22;24.30;46.70
18648;DHT22;9453;50.294;18.644;2022-07-15T14:55:51;24.40;45.80
18648;DHT22;9453;50.294;18.644;2022-07-15T14:58:18;24.50;46.30
18648;DHT22;9453;50.294;18.644;2022-07-15T15:00:46;24.40;46.80
18648;DHT22;9453;50.294;18.644;2022-07-15T15:03:14;24.40;45.60
18648;DHT22;9453;50.294;18.644;2022-07-15T15:05:41;24.60;46.80
18648;DHT22;9453;50.294;18.644;2022-07-15T15:08:08;24.60;46.00
18648;DHT22;9453;50.294;18.644;2022-07-15T15:10:36;24.90;49.00
18648;DHT22;9453;50.294;18.644;2022-07-15T15:13:05;25.00;45.50
18648;DHT22;9453;50.294;18.644;2022-07-15T15:15:32;24.90;45.70
18648;DHT22;9453;50.294;18.644;2022-07-15T15:17:59;24.80;45.50
18648;DHT22;9453;50.294;18.644;2022-07-15T15:20:26;24.70;45.20
18648;DHT22;9453;50.294;18.644;2022-07-15T15:22:53;24.70;45.60
18648;DHT22;9453;50.294;18.644;2022-07-15T15:25:20;24.60;46.50
18648;DHT22;9453;50.294;18.644;2022-07-15T15:28:01;24.50;46.10
18648;DHT22;9453;50.294;18.644;2022-07-15T15:30:29;24.40;46.70
18648;DHT22;9453;50.294;18.644;2022-07-15T15:33:10;24.30;45.20
18648;DHT22;9453;50.294;18.644;2022-07-15T15:35:38;24.60;46.30
18648;DHT22;9453;50.294;18.644;2022-07-15T15:38:07;24.40;46.70
18648;DHT22;9453;50.294;18.644;2022-07-15T15:40:34;24.10;46.00
18648;DHT22;9453;50.294;18.644;2022-07-15T15:43:02;24.00;46.10
18648;DHT22;9453;50.294;18.644;2022-07-15T15:45:31;24.30;45.90
18648;DHT22;9453;50.294;18.644;2022-07-15T15:47:57;24.40;46.00
18648;DHT22;9453;50.294;18.644;2022-07-15T15:50:25;24.40;45.30
18648;DHT22;9453;50.294;18.644;2022-07-15T15:52:51;24.50;45.50
18648;DHT22;9453;50.294;18.644;2022-07-15T15:55:18;23.80;45.30
18648;DHT22;9453;50.294;18.644;2022-07-15T15:57:45;23.60;46.90
18648;DHT22;9453;50.294;18.644;2022-07-15T16:00:13;23.30;46.10
18648;DHT22;9453;50.294;18.644;2022-07-15T16:02:41;23.10;46.80
18648;DHT22;9453;50.294;18.644;2022-07-15T16:05:09;23.10;47.20
18648;DHT22;9453;50.294;18.644;2022-07-15T16:07:36;22.60;48.10
18648;DHT22;9453;50.294;18.644;2022-07-15T16:10:04;22.70;48.40
18648;DHT22;9453;50.294;18.644;2022-07-15T16:12:31;22.40;48.60
18648;DHT22;9453;50.294;18.644;2022-07-15T16:14:58;22.30;48.90
18648;DHT22;9453;50.294;18.644;2022-07-15T16:17:25;22.00;49.10
18648;DHT22;9453;50.294;18.644;2022-07-15T16:19:53;21.90;50.00
18648;DHT22;9453;50.294;18.644;2022-07-15T16:22:21;21.70;50.30
18648;DHT22;9453;50.294;18.644;2022-07-15T16:25:07;21.60;50.40
18648;DHT22;9453;50.294;18.644;2022-07-15T16:27:34;21.50;49.90
18648;DHT22;9453;50.294;18.644;2022-07-15T16:30:01;21.50;50.50
18648;DHT22;9453;50.294;18.644;2022-07-15T16:32:28;21.30;50.10
18648;DHT22;9453;50.294;18.644;2022-07-15T16:34:57;21.40;51.50
18648;DHT22;9453;50.294;18.644;2022-07-15T16:37:24;21.30;50.50
18648;DHT22;9453;50.294;18.644;2022-07-15T16:39:51;21.30;51.10
18648;DHT22;9453;50.294;18.644;2022-07-15T16:42:18;21.30;50.00
18648;DHT22;9453;50.294;18.644;2022-07-15T16:44:45;21.20;50.20
18648;DHT22;9453;50.294;18.644;2022-07-15T16:47:12;21.20;51.10
18648;DHT22;9453;50.294;18.644;2022-07-15T16:49:39;21.20;51.80
18648;DHT22;9453;50.294;18.644;2022-07-15T16:52:07;21.00;50.30
18648;DHT22;9453;50.294;18.644;2022-07-15T16:54:34;20.80;51.20
18648;DHT22;9453;50.294;18.644;2022-07-15T16:57:01;20.70;50.50
18648;DHT22;9453;50.294;18.644;2022-07-15T16:59:29;20.60;50.70
18648;DHT22;9453;50.294;18.644;2022-07-15T17:01:56;20.50;51.50
18648;DHT22;9453;50.294;18.644;2022-07-15T17:04:22;20.40;52.40
18648;DHT22;9453;50.294;18.644;2022-07-15T17:06:50;20.30;52.50
18648;DHT22;9453;50.294;18.644;2022-07-15T17:09:18;20.30;53.20
18648;DHT22;9453;50.294;18.644;2022-07-15T17:11:45;20.20;53.90
18648;DHT22;9453;50.294;18.644;2022-07-15T17:14:12;20.10;52.60
18648;DHT22;9453;50.294;18.644;2022-07-15T17:16:39;20.00;52.10
18648;DHT22;9453;50.294;18.644;2022-07-15T17:19:06;20.10;53.00
18648;DHT22;9453;50.294;18.644;2022-07-15T17:21:33;20.00;52.80
18648;DHT22;9453;50.294;18.644;2022-07-15T17:24:01;20.00;53.10
18648;DHT22;9453;50.294;18.644;2022-07-15T17:26:29;19.80;52.30
18648;DHT22;9453;50.294;18.644;2022-07-15T17:28:57;19.80;52.60
18648;DHT22;9453;50.294;18.644;2022-07-15T17:31:24;19.80;53.00
18648;DHT22;9453;50.294;18.644;2022-07-15T17:33:50;19.80;53.30
18648;DHT22;9453;50.294;18.644;2022-07-15T17:36:17;19.70;52.90
18648;DHT22;9453;50.294;18.644;2022-07-15T17:38:44;19.70;52.80
18648;DHT22;9453;50.294;18.644;2022-07-15T17:41:11;19.70;52.90
18648;DHT22;9453;50.294;18.644;2022-07-15T17:43:39;19.60;52.60
18648;DHT22;9453;50.294;18.644;2022-07-15T17:46:07;19.60;53.80
18648;DHT22;9453;50.294;18.644;2022-07-15T17:48:35;19.60;53.90
18648;DHT22;9453;50.294;18.644;2022-07-15T17:51:02;19.60;53.40
18648;DHT22;9453;50.294;18.644;2022-07-15T17:53:30;19.50;53.30
18648;DHT22;9453;50.294;18.644;2022-07-15T17:55:57;19.50;53.30
18648;DHT22;9453;50.294;18.644;2022-07-15T17:58:24;19.40;54.00
18648;DHT22;9453;50.294;18.644;2022-07-15T18:00:52;19.40;54.20
18648;DHT22;9453;50.294;18.644;2022-07-15T18:03:20;19.30;54.10
18648;DHT22;9453;50.294;18.644;2022-07-15T18:05:47;19.30;54.50
18648;DHT22;9453;50.294;18.644;2022-07-15T18:08:15;19.20;55.20
18648;DHT22;9453;50.294;18.644;2022-07-15T18:10:43;19.20;55.30
18648;DHT22;9453;50.294;18.644;2022-07-15T18:13:13;19.20;55.60
18648;DHT22;9453;50.294;18.644;2022-07-15T18:15:40;19.10;55.80
18648;DHT22;9453;50.294;18.644;2022-07-15T18:18:09;19.10;57.00
18648;DHT22;9453;50.294;18.644;2022-07-15T18:20:37;19.10;57.00
18648;DHT22;9453;50.294;18.644;2022-07-15T18:23:04;19.00;56.90
18648;DHT22;9453;50.294;18.644;2022-07-15T18:25:31;19.00;56.60
18648;DHT22;9453;50.294;18.644;2022-07-15T18:27:57;18.90;56.80
18648;DHT22;9453;50.294;18.644;2022-07-15T18:30:24;18.90;57.00
18648;DHT22;9453;50.294;18.644;2022-07-15T18:32:51;18.90;57.50
18648;DHT22;9453;50.294;18.644;2022-07-15T18:35:19;18.80;57.90
18648;DHT22;9453;50.294;18.644;2022-07-15T18:37:46;18.70;57.70
18648;DHT22;9453;50.294;18.644;2022-07-15T18:40:13;18.60;57.90
18648;DHT22;9453;50.294;18.644;2022-07-15T18:42:40;18.60;58.40
18648;DHT22;9453;50.294;18.644;2022-07-15T18:45:07;18.50;58.20
18648;DHT22;9453;50.294;18.644;2022-07-15T18:47:34;18.40;58.20
18648;DHT22;9453;50.294;18.644;2022-07-15T18:50:02;18.40;58.80
18648;DHT22;9453;50.294;18.644;2022-07-15T18:52:31;18.40;59.80
18648;DHT22;9453;50.294;18.644;2022-07-15T18:54:57;18.40;60.00
18648;DHT22;9453;50.294;18.644;2022-07-15T18:57:25;18.40;59.20
18648;DHT22;9453;50.294;18.644;2022-07-15T18:59:52;18.30;59.40
18648;DHT22;9453;50.294;18.644;2022-07-15T19:02:18;18.30;59.60
18648;DHT22;9453;50.294;18.644;2022-07-15T19:04:45;18.20;59.60
18648;DHT22;9453;50.294;18.644;2022-07-15T19:07:12;18.20;59.50
18648;DHT22;9453;50.294;18.644;2022-07-15T19:09:40;18.10;60.70
18648;DHT22;9453;50.294;18.644;2022-07-15T19:12:07;18.00;61.20
18648;DHT22;9453;50.294;18.644;2022-07-15T19:14:34;18.00;61.50
18648;DHT22;9453;50.294;18.644;2022-07-15T19:17:01;17.90;61.90
18648;DHT22;9453;50.294;18.644;2022-07-15T19:19:28;17.80;62.00
18648;DHT22;9453;50.294;18.644;2022-07-15T19:21:55;17.70;62.90
18648;DHT22;9453;50.294;18.644;2022-07-15T19:24:22;17.60;62.80
18648;DHT22;9453;50.294;18.644;2022-07-15T19:26:51;17.60;63.50
18648;DHT22;9453;50.294;18.644;2022-07-15T19:29:18;17.50;64.70
18648;DHT22;9453;50.294;18.644;2022-07-15T19:31:45;17.50;65.20
18648;DHT22;9453;50.294;18.644;2022-07-15T19:34:12;17.40;65.80
18648;DHT22;9453;50.294;18.644;2022-07-15T19:36:39;17.30;66.60
18648;DHT22;9453;50.294;18.644;2022-07-15T19:39:06;17.30;67.30
18648;DHT22;9453;50.294;18.644;2022-07-15T19:41:33;17.20;67.80
18648;DHT22;9453;50.294;18.644;2022-07-15T19:44:01;17.20;68.60
18648;DHT22;9453;50.294;18.644;2022-07-15T19:46:28;17.00;68.60
18648;DHT22;9453;50.294;18.644;2022-07-15T19:48:55;17.00;69.40